Meteógrafos Informações Meteorológicas em tempo real
Aeroporto de Congonhas
28-10-2020 22:56 BRT (UTC-3)

Temperatura atual: 23 graus 73 F    Umidade relativa: 57 %
Velocidade do vento: 04 nós 7 Km/h    Direção: 160 graus SSE
Ajuste do altímetro ..: 1012 HPA
Visibilidade: Ótima    Tempo presente: Céu Limpo

Observação
Data Hora BRTTempo°CUmidadePressãoVentoVisib.
28/10 - 20:06   ND ND° ND% ND /0 km/h ND
28/10 - 19:10   Céu Limpo 31° 14% 1009 Oeste-noroeste/10 km/h CAVO
28/10 - 16:58   Céu Limpo 32° 12% 1009 Oeste-noroeste/18 km/h OK
28/10 - 15:56   Céu Limpo 31° 19% 1009 Noroeste/21 km/h CAVO
28/10 - 14:56   Céu Limpo 31° 19% 1009 Noroeste/21 km/h CAVO
28/10 - 13:56   Céu Limpo 30° 23% 1010 Oeste/18 km/h CAVO
28/10 - 12:56   Céu Limpo 29° 28% 1010 Norte-noroeste/25 km/h OK
28/10 - 11:56   Céu Limpo 28° 32% 1011 Noroeste/21 km/h CAVO
28/10 - 09:56   ND ND° ND% ND /0 km/h ND
28/10 - 08:56   ND ND° ND% ND /0 km/h ND
28/10 - 07:56   ND ND° ND% ND /0 km/h ND
28/10 - 06:56   Céu Limpo 20° 60% 1009 Norte-noroeste/5 km/h OK
28/10 - 06:00   Céu Limpo 20° 60% 1009 Norte-noroeste/5 km/h OK
28/10 - 04:56   Céu Limpo 20° 64% 1008 Noroeste/12 km/h OK
28/10 - 03:56   Céu Limpo 21° 64% 1008 Noroeste/7 km/h OK
28/10 - 01:56   Céu Limpo 22° 68% 1009 Nordeste/3 km/h OK
28/10 - 00:59   Céu Limpo 22° 68% 1009 Este-nordeste/3 km/h OK
27/10 - 23:56   Céu Limpo 22° 64% 1009 /3 km/h OK
27/10 - 22:56   Céu Limpo 22° 64% 1009 /1 km/h OK
27/10 - 21:56   Céu Limpo 22° 64% 1009 /1 km/h OK
27/10 - 20:56   Céu Limpo 22° 68% 1008 Sul-sudeste/7 km/h OK
27/10 - 20:00   Céu Limpo 22° 68% 1008 Sul-sudeste/7 km/h OK
27/10 - 18:56   Céu Limpo 24° 65% 1006 Sul-sudeste/14 km/h OK
27/10 - 17:56   Céu Limpo 26° 57% 1006 Sul-sudeste/16 km/h OK

Termo de Uso  |   Links Úteis  |   Imprensa  |  Anuncie  |  Fale Conosco  |  Versão Celular  |   Política de Privacidade

Apolo11.com - Todos os direitos reservados - 2000 - 2020

"Quando se procura muito o jeito de se fazer temer, sempre se encontra primeiro o de se fazer odiar" - Montesquieu -